Time;durP1;ratioP1;P1;durP2;ratioP2;P2;SDS_P1;SDS_P2;PMS_P1;PMS_P2;Temp;Humidity;BMP_temperature;BMP_pressure;BME280_temperature;BME280_humidity;BME280_pressure;Samples;Min_cycle;Max_cycle;Signal;HPM_P1;HPM_P2
2022/10/02 00:01:47;;;;;;;2.50;0.63;;;;;;;12.86;87.05;101470.16;5033687;28;100786;-29
2022/10/02 00:04:17;;;;;;;6.07;1.00;;;;;;;12.88;86.75;101484.53;5034669;27;96601;-29
2022/10/02 00:06:46;;;;;;;4.15;1.02;;;;;;;12.89;87.33;101485.41;5033820;28;96810;-30
2022/10/02 00:09:24;;;;;;;2.33;0.98;;;;;;;12.86;86.98;101485.59;5033568;28;100993;-29
2022/10/02 00:11:55;;;;;;;2.70;1.15;;;;;;;12.90;87.42;101490.75;5033447;28;101378;-28
2022/10/02 00:14:23;;;;;;;5.45;1.20;;;;;;;12.90;87.36;101485.31;5032998;28;96604;-28
2022/10/02 00:16:56;;;;;;;8.18;1.10;;;;;;;12.93;87.47;101482.41;5033803;28;96829;-29
2022/10/02 00:19:21;;;;;;;2.70;0.77;;;;;;;12.93;87.19;101481.53;5032404;28;101523;-29
2022/10/02 00:22:02;;;;;;;4.35;0.98;;;;;;;12.94;88.19;101492.34;5035264;28;97700;-29
2022/10/02 00:24:47;;;;;;;3.92;0.82;;;;;;;12.91;87.68;101480.75;5035239;28;96584;-29
2022/10/02 00:27:17;;;;;;;5.35;1.13;;;;;;;12.92;87.02;101482.53;5035052;28;96661;-29
2022/10/02 00:29:52;;;;;;;8.68;1.15;;;;;;;12.96;87.55;101497.66;5032608;28;101093;-29
2022/10/02 00:32:40;;;;;;;3.88;1.05;;;;;;;12.99;88.14;101493.88;5034417;28;99388;-29
2022/10/02 00:35:15;;;;;;;1.42;0.68;;;;;;;13.02;87.95;101494.56;5034746;28;96747;-30
2022/10/02 00:37:52;;;;;;;3.15;0.90;;;;;;;13.05;87.82;101499.81;5035394;28;96432;-28
2022/10/02 00:40:36;;;;;;;12.13;1.20;;;;;;;13.09;88.05;101503.25;5032816;28;100812;-29
2022/10/02 00:43:29;;;;;;;5.13;0.68;;;;;;;13.13;88.63;101504.78;5033083;28;100718;-30
2022/10/02 00:46:17;;;;;;;4.93;1.08;;;;;;;13.10;88.26;101497.69;5035095;28;96470;-29
2022/10/02 00:49:04;;;;;;;1.35;0.73;;;;;;;13.15;88.79;101502.84;5033648;28;96808;-29
2022/10/02 00:51:48;;;;;;;10.13;1.25;;;;;;;13.14;88.81;101493.81;5034478;28;97440;-29
2022/10/02 00:54:52;;;;;;;4.55;0.68;;;;;;;13.16;88.67;101507.34;5034626;28;97850;-28
2022/10/02 00:57:24;;;;;;;5.68;1.02;;;;;;;13.15;88.44;101498.28;5034372;28;96574;-29
2022/10/02 01:00:02;;;;;;;5.82;0.77;;;;;;;13.17;88.15;101501.78;5033136;28;96719;-30
2022/10/02 01:02:30;;;;;;;6.25;0.98;;;;;;;13.18;88.15;101495.38;5034192;28;99346;-31
2022/10/02 01:04:57;;;;;;;5.03;0.98;;;;;;;13.20;88.76;101491.69;5034266;28;97870;-29
2022/10/02 01:07:24;;;;;;;5.22;1.05;;;;;;;13.17;88.19;101498.19;5032983;28;96703;-29
2022/10/02 01:09:50;;;;;;;2.67;0.77;;;;;;;13.15;87.95;101498.28;5034322;27;96808;-28
2022/10/02 01:12:15;;;;;;;2.97;0.68;;;;;;;13.17;88.17;101504.50;5033907;28;99201;-31
2022/10/02 01:14:41;;;;;;;4.10;1.23;;;;;;;13.16;87.74;101501.91;5034294;28;97284;-29
2022/10/02 01:17:31;;;;;;;2.42;0.80;;;;;;;13.19;87.96;101512.56;5034408;28;96521;-29
2022/10/02 01:20:00;;;;;;;2.10;0.77;;;;;;;13.17;87.76;101507.22;5034105;28;97829;-29
2022/10/02 01:22:44;;;;;;;4.93;0.98;;;;;;;13.21;87.72;101504.34;5032117;28;100829;-29
2022/10/02 01:25:09;;;;;;;7.43;1.48;;;;;;;13.21;88.00;101501.59;5034094;28;97849;-29
2022/10/02 01:27:36;;;;;;;0.80;0.60;;;;;;;13.18;87.81;101506.25;5034456;28;96438;-29
2022/10/02 01:30:07;;;;;;;2.67;0.98;;;;;;;13.17;87.70;101507.22;5033949;27;96814;-32
2022/10/02 01:32:36;;;;;;;6.22;1.17;;;;;;;13.18;88.23;101510.84;5035872;28;102513;-28
2022/10/02 01:35:03;;;;;;;3.67;1.00;;;;;;;13.15;88.58;101500.13;5035523;28;100915;-29
2022/10/02 01:37:31;;;;;;;4.32;0.93;;;;;;;13.15;88.33;101508.28;5036164;28;96624;-30
2022/10/02 01:40:03;;;;;;;3.67;0.90;;;;;;;13.15;88.11;101514.59;5036463;28;96766;-30
2022/10/02 01:42:29;;;;;;;4.20;1.25;;;;;;;13.13;88.23;101516.56;5035908;28;100862;-29
2022/10/02 01:44:54;;;;;;;3.75;1.35;;;;;;;13.12;88.48;101516.66;5037040;28;97665;-29
2022/10/02 01:47:47;;;;;;;5.25;1.20;;;;;;;13.12;88.69;101524.81;5035581;28;96685;-29
2022/10/02 01:50:15;;;;;;;5.50;1.13;;;;;;;13.14;88.86;101529.19;5036070;28;96766;-29
2022/10/02 01:52:40;;;;;;;10.40;1.42;;;;;;;13.20;88.57;101532.47;5037329;28;97416;-29
2022/10/02 01:55:40;;;;;;;2.92;0.80;;;;;;;13.20;89.22;101532.47;5037407;28;97485;-28
2022/10/02 01:58:12;;;;;;;12.10;1.13;;;;;;;13.21;89.06;101529.69;5055957;27;96865;-29
2022/10/02 02:00:43;;;;;;;6.95;0.90;;;;;;;13.23;88.87;101530.47;5037420;28;96825;-29
2022/10/02 02:03:17;;;;;;;10.55;1.27;;;;;;;13.26;88.56;101526.69;5037135;28;97459;-29
2022/10/02 02:05:51;;;;;;;4.50;0.70;;;;;;;13.25;88.82;101527.63;5035637;28;100945;-29
2022/10/02 02:08:31;;;;;;;3.03;0.70;;;;;;;13.25;88.48;101519.47;5019691;28;96686;-29
2022/10/02 02:11:07;;;;;;;7.30;0.85;;;;;;;13.26;88.72;101524.81;5037139;28;96651;-29
2022/10/02 02:13:53;;;;;;;3.13;0.65;;;;;;;13.25;88.25;101528.53;5034619;28;99022;-29
2022/10/02 02:16:40;;;;;;;2.30;0.75;;;;;;;13.26;87.87;101526.69;5035577;28;101646;-30
2022/10/02 02:19:25;;;;;;;1.88;0.60;;;;;;;13.25;88.20;101524.91;5035476;28;96556;-28
2022/10/02 02:21:56;;;;;;;4.63;0.68;;;;;;;13.25;88.49;101533.06;5035575;28;96604;-29
2022/10/02 02:24:51;;;;;;;4.60;1.02;;;;;;;13.23;88.19;101526.84;5036671;28;97908;-29
2022/10/02 02:27:21;;;;;;;1.90;0.85;;;;;;;13.18;88.13;101521.72;5032576;28;100292;-28
2022/10/02 02:29:51;;;;;;;6.65;0.85;;;;;;;13.19;88.05;101526.19;5035517;28;97285;-28
2022/10/02 02:32:20;;;;;;;7.32;1.25;;;;;;;13.23;88.34;101537.72;5035547;28;96828;-29
2022/10/02 02:34:56;;;;;;;5.15;1.15;;;;;;;13.20;88.01;101530.63;5034526;27;101030;-29
2022/10/02 02:37:25;;;;;;;5.55;0.75;;;;;;;13.20;88.13;101537.94;5036747;28;97891;-31
2022/10/02 02:39:56;;;;;;;6.10;0.95;;;;;;;13.21;88.58;101532.41;5034555;28;96635;-31
2022/10/02 02:42:25;;;;;;;5.55;1.15;;;;;;;13.19;88.75;101531.63;5034754;27;96781;-29
2022/10/02 02:45:04;;;;;;;2.25;0.77;;;;;;;13.20;88.90;101529.75;5034792;28;100952;-29
2022/10/02 02:47:39;;;;;;;4.40;1.17;;;;;;;13.21;88.46;101536.97;5034771;28;100831;-29
2022/10/02 02:50:09;;;;;;;1.67;0.75;;;;;;;13.23;88.42;101537.72;5035152;28;96595;-30
2022/10/02 02:52:36;;;;;;;3.22;0.85;;;;;;;13.22;88.50;101541.44;5036770;28;96554;-29
2022/10/02 02:55:27;;;;;;;2.17;0.57;;;;;;;13.23;88.34;101540.44;5036141;28;99113;-29
2022/10/02 02:58:19;;;;;;;3.20;0.93;;;;;;;13.24;88.42;101542.22;5035052;28;100870;-29
2022/10/02 03:00:45;;;;;;;5.57;0.80;;;;;;;13.22;88.62;101546.88;5034979;28;96615;-29
2022/10/02 03:03:10;;;;;;;1.35;0.70;;;;;;;13.19;88.06;101542.50;5034808;28;96821;-29
2022/10/02 03:05:41;;;;;;;5.32;1.00;;;;;;;13.19;88.25;101547.94;5035680;28;97407;-29
2022/10/02 03:08:21;;;;;;;2.22;0.98;;;;;;;13.18;88.25;101547.06;5036057;28;97820;-30
2022/10/02 03:11:13;;;;;;;3.35;0.95;;;;;;;13.20;89.45;101560.56;5036436;28;96450;-29
2022/10/02 03:13:41;;;;;;;2.28;0.90;;;;;;;13.20;89.46;101555.13;5034571;28;96928;-29
2022/10/02 03:16:13;;;;;;;10.15;1.45;;;;;;;13.22;89.31;101550.47;5035938;28;98052;-29
2022/10/02 03:18:38;;;;;;;2.37;0.97;;;;;;;13.23;89.06;101559.50;5034277;28;98936;-28
2022/10/02 03:21:15;;;;;;;2.80;0.80;;;;;;;13.23;89.13;101563.13;5035975;28;96539;-30
2022/10/02 03:24:00;;;;;;;4.15;1.10;;;;;;;13.22;88.82;101564.06;5034944;28;96700;-28
2022/10/02 03:26:52;;;;;;;3.08;0.98;;;;;;;13.18;88.95;101560.69;5034170;28;100899;-30
2022/10/02 03:29:24;;;;;;;1.30;0.70;;;;;;;13.19;89.21;101569.69;5034200;28;101037;-29
2022/10/02 03:31:49;;;;;;;7.68;1.08;;;;;;;13.16;88.69;101562.59;5033930;28;96721;-29
2022/10/02 03:34:16;;;;;;;2.42;0.82;;;;;;;13.16;88.93;101561.75;5035938;28;96523;-30
2022/10/02 03:36:41;;;;;;;5.93;1.05;;;;;;;13.14;88.78;101552.78;5034103;28;100737;-29
2022/10/02 03:39:07;;;;;;;1.67;0.80;;;;;;;13.14;88.87;101555.50;5035552;28;97879;-29
2022/10/02 03:41:32;;;;;;;1.55;0.65;;;;;;;13.13;88.85;101557.38;5035659;28;96639;-29
2022/10/02 03:43:58;;;;;;;3.90;1.13;;;;;;;13.15;88.94;101554.53;5035710;28;96596;-30
2022/10/02 03:46:23;;;;;;;4.78;1.13;;;;;;;13.15;88.93;101563.56;5035031;28;102762;-29
2022/10/02 03:48:48;;;;;;;7.63;1.05;;;;;;;13.16;88.65;101556.28;5035607;27;99146;-29
2022/10/02 03:51:14;;;;;;;5.97;0.85;;;;;;;13.17;88.37;101560.75;5035681;27;96469;-29
2022/10/02 03:53:40;;;;;;;6.82;0.80;;;;;;;13.15;88.67;101562.69;5034205;27;96869;-29
2022/10/02 03:56:21;;;;;;;2.88;1.05;;;;;;;13.11;88.74;101553.84;5033002;28;101346;-29
2022/10/02 03:58:51;;;;;;;2.53;0.88;;;;;;;13.11;88.61;101555.72;5033732;27;100655;-29
2022/10/02 04:01:24;;;;;;;4.63;0.93;;;;;;;13.10;89.05;101554.81;5035549;27;96558;-29
2022/10/02 04:03:58;;;;;;;5.10;0.88;;;;;;;13.11;88.82;101551.13;5034092;28;96713;-30
2022/10/02 04:06:46;;;;;;;1.85;0.70;;;;;;;13.11;88.82;101561.16;5035192;28;97367;-29
2022/10/02 04:09:19;;;;;;;4.55;1.05;;;;;;;13.05;88.84;101540.63;5033598;28;101246;-29
2022/10/02 04:12:01;;;;;;;1.63;0.52;;;;;;;13.04;88.78;101547.03;5033975;28;96779;-31
2022/10/02 04:14:32;;;;;;;;;;;;;;;13.03;89.10;101550.72;5035783;28;96629;-28
2022/10/02 04:17:08;;;;;;;1.80;0.60;;;;;;;12.99;89.16;101562.75;5033455;27;100606;-30
2022/10/02 04:19:46;;;;;;;3.63;0.73;;;;;;;12.95;88.89;101561.19;5033387;28;101124;-29
2022/10/02 04:22:32;;;;;;;5.20;0.77;;;;;;;12.92;88.85;101561.38;5033398;28;96766;-29
2022/10/02 04:25:16;;;;;;;2.05;0.65;;;;;;;12.93;88.93;101574.00;5035321;28;96527;-30
2022/10/02 04:27:47;;;;;;;4.05;1.02;;;;;;;12.90;88.88;101583.22;5034719;27;98007;-29
2022/10/02 04:30:16;;;;;;;2.90;0.73;;;;;;;12.85;89.04;101579.03;5033306;28;101250;-29
2022/10/02 04:32:41;;;;;;;3.50;1.05;;;;;;;12.83;89.24;101570.09;5033493;28;96558;-30
2022/10/02 04:35:29;;;;;;;1.75;0.80;;;;;;;12.82;88.72;101576.47;5034771;27;96875;-31
2022/10/02 04:38:25;;;;;;;4.22;0.73;;;;;;;12.79;88.94;101590.25;5033249;28;101329;-29
2022/10/02 04:40:59;;;;;;;1.15;0.70;;;;;;;12.78;89.10;101588.53;5034772;28;99349;-29
2022/10/02 04:43:40;;;;;;;6.13;1.15;;;;;;;12.76;88.72;101588.59;5034927;28;96610;-29
2022/10/02 04:46:43;;;;;;;1.45;0.82;;;;;;;12.74;89.45;101596.84;5033488;28;96818;-29
2022/10/02 04:49:31;;;;;;;1.77;0.73;;;;;;;12.72;89.46;101597.88;5034274;28;97350;-29
2022/10/02 04:52:23;;;;;;;1.98;1.13;;;;;;;12.71;89.32;101594.31;5033072;28;100990;-29
2022/10/02 04:55:06;;;;;;;1.77;0.63;;;;;;;12.70;89.34;101603.44;5033204;28;96697;-29
2022/10/02 04:57:53;;;;;;;3.60;1.33;;;;;;;12.70;89.28;101600.72;5033413;28;96703;-29
2022/10/02 05:00:22;;;;;;;7.13;1.27;;;;;;;12.69;89.21;101612.53;5032822;28;101383;-29
2022/10/02 05:03:03;;;;;;;6.68;1.27;;;;;;;12.70;89.26;101614.31;5032410;28;103708;-29
2022/10/02 05:05:52;;;;;;;0.77;0.60;;;;;;;12.71;89.23;101613.34;5034982;27;96495;-29
2022/10/02 05:08:25;;;;;;;1.73;0.70;;;;;;;12.70;89.14;101618.84;5037420;28;96577;-28
2022/10/02 05:11:23;;;;;;;1.75;1.00;;;;;;;12.72;89.14;101623.22;5036330;28;100730;-29
2022/10/02 05:14:13;;;;;;;3.45;0.95;;;;;;;12.72;89.51;101620.50;5037652;28;98063;-30
2022/10/02 05:16:49;;;;;;;7.72;1.08;;;;;;;12.70;89.46;101627.00;5036167;28;96703;-29
2022/10/02 05:19:23;;;;;;;2.03;0.90;;;;;;;12.71;89.54;101635.06;5036529;28;96724;-29
2022/10/02 05:22:25;;;;;;;2.65;0.82;;;;;;;12.72;89.67;101631.38;5036107;28;101002;-29
2022/10/02 05:25:06;;;;;;;5.90;0.90;;;;;;;12.70;89.77;101633.34;5037565;28;97859;-30
2022/10/02 05:27:40;;;;;;;8.40;1.20;;;;;;;12.76;89.43;101648.41;5038103;28;96629;-30
2022/10/02 05:30:07;;;;;;;5.63;0.70;;;;;;;12.80;89.87;101649.09;5037922;28;96842;-30
2022/10/02 05:32:48;;;;;;;3.08;0.45;;;;;;;12.83;89.47;101648.94;5037240;28;99277;-30
2022/10/02 05:35:24;;;;;;;10.40;0.93;;;;;;;12.85;89.53;101649.72;5036051;28;100798;-28
2022/10/02 05:37:54;;;;;;;4.93;0.75;;;;;;;12.85;89.30;101652.44;5036302;28;96892;-30
2022/10/02 05:40:39;;;;;;;4.20;0.93;;;;;;;12.86;89.36;101648.75;5036088;28;96850;-28
2022/10/02 05:43:36;;;;;;;4.43;0.70;;;;;;;12.87;89.24;101651.38;5035562;28;101192;-29
2022/10/02 05:46:22;;;;;;;2.88;0.88;;;;;;;12.91;89.21;101657.50;5037096;28;99197;-29
2022/10/02 05:48:57;;;;;;;6.63;1.23;;;;;;;12.90;89.11;101653.91;5036137;28;96581;-28
2022/10/02 05:51:56;;;;;;;6.28;1.05;;;;;;;12.93;89.03;101655.56;5070091;27;96723;-28
2022/10/02 05:54:29;;;;;;;6.57;0.93;;;;;;;12.92;89.03;101665.59;5035838;28;100996;-29
2022/10/02 05:57:26;;;;;;;2.15;0.85;;;;;;;12.93;89.06;101672.75;5035594;28;100683;-29
2022/10/02 06:00:03;;;;;;;7.47;0.68;;;;;;;12.93;88.98;101670.03;5035829;28;96729;-29
2022/10/02 06:02:40;;;;;;;3.15;0.57;;;;;;;12.92;89.01;101662.00;5036266;28;96762;-29
2022/10/02 06:05:11;;;;;;;1.05;0.55;;;;;;;12.91;89.03;101669.25;5035631;28;100750;-29
2022/10/02 06:07:37;;;;;;;3.10;1.00;;;;;;;12.93;88.86;101680.06;5035567;28;101379;-29
2022/10/02 06:10:10;;;;;;;1.23;0.88;;;;;;;12.94;89.07;101676.34;5035336;28;96919;-30
2022/10/02 06:12:41;;;;;;;0.77;0.45;;;;;;;12.95;88.96;101681.72;5035700;28;96745;-29
2022/10/02 06:15:21;;;;;;;1.60;0.73;;;;;;;12.96;88.90;101674.44;5034953;28;100857;-29
2022/10/02 06:17:53;;;;;;;1.08;0.40;;;;;;;12.96;89.06;101675.28;5034482;28;100812;-28
2022/10/02 06:21:00;;;;;;;4.40;0.63;;;;;;;12.97;89.12;101689.78;5035538;28;96650;-29
2022/10/02 06:23:34;;;;;;;2.92;0.80;;;;;;;12.95;89.28;101695.31;5014927;28;96849;-30
2022/10/02 06:26:23;;;;;;;1.70;0.75;;;;;;;12.94;88.78;101689.94;5036776;27;98150;-29
2022/10/02 06:29:03;;;;;;;2.88;0.98;;;;;;;13.02;88.88;101694.97;5035541;28;100993;-29
2022/10/02 06:31:47;;;;;;;12.05;1.10;;;;;;;13.03;88.72;101711.19;5035653;28;96608;-31
2022/10/02 06:34:13;;;;;;;3.17;0.68;;;;;;;13.02;88.88;101706.72;5035407;28;96738;-32
2022/10/02 06:37:01;;;;;;;6.38;0.55;;;;;;;13.06;88.60;101710.13;5034276;28;100870;-29
2022/10/02 06:39:33;;;;;;;4.90;0.85;;;;;;;13.06;88.53;101716.47;5034859;28;100858;-29
2022/10/02 06:42:36;;;;;;;4.23;1.00;;;;;;;13.07;88.49;101726.38;5036623;28;96568;-28
2022/10/02 06:45:20;;;;;;;5.68;1.13;;;;;;;13.09;88.61;101727.16;5035176;28;96711;-29
2022/10/02 06:48:23;;;;;;;0.77;0.25;;;;;;;13.10;88.51;101728.91;5034780;28;100861;-29
2022/10/02 06:51:00;;;;;;;0.98;0.55;;;;;;;13.11;88.74;101732.53;5036368;28;97954;-30
2022/10/02 06:53:32;;;;;;;1.90;0.77;;;;;;;13.11;88.35;101735.25;5036528;28;96590;-29
2022/10/02 06:56:14;;;;;;;;;;;;;;;13.13;88.67;101728.75;5036062;28;97770;-30
2022/10/02 06:58:46;;;;;;;2.40;0.45;;;;;;;13.16;88.25;101725.84;5036255;28;98153;-28
2022/10/02 07:01:28;;;;;;;2.20;0.80;;;;;;;13.18;88.05;101725.75;5036193;28;98228;-29
2022/10/02 07:04:03;;;;;;;6.57;1.00;;;;;;;13.25;88.20;101738.03;5035705;27;96557;-30
2022/10/02 07:06:41;;;;;;;0.85;0.60;;;;;;;13.27;87.95;101737.91;5036168;28;96798;-30
2022/10/02 07:09:22;;;;;;;4.35;0.70;;;;;;;13.30;88.51;101741.38;5034605;28;100955;-30
2022/10/02 07:12:02;;;;;;;1.85;0.63;;;;;;;13.32;87.92;101741.28;5035860;28;98048;-29
2022/10/02 07:14:34;;;;;;;1.73;0.77;;;;;;;13.34;88.08;101744.78;5035824;28;96850;-30
2022/10/02 07:17:28;;;;;;;5.05;1.05;;;;;;;13.36;87.77;101740.13;5036376;28;96820;-29
2022/10/02 07:20:15;;;;;;;2.28;0.55;;;;;;;13.35;87.77;101743.84;5034260;28;99282;-28
2022/10/02 07:23:08;;;;;;;3.15;0.65;;;;;;;13.37;87.85;101742.78;5036398;28;97813;-29
2022/10/02 07:25:59;;;;;;;3.88;0.47;;;;;;;13.36;88.31;101746.44;5036072;28;96580;-30
2022/10/02 07:28:38;;;;;;;2.55;0.70;;;;;;;13.41;87.87;101743.47;5034245;28;96788;-29
2022/10/02 07:31:14;;;;;;;3.35;0.90;;;;;;;13.44;87.71;101745.13;5033630;28;100855;-29
2022/10/02 07:33:54;;;;;;;5.30;0.85;;;;;;;13.48;87.68;101746.69;5034278;28;100863;-29
2022/10/02 07:36:26;;;;;;;8.30;1.20;;;;;;;13.50;87.42;101750.22;5035692;27;96522;-30
2022/10/02 07:38:59;;;;;;;3.53;0.70;;;;;;;13.51;87.72;101744.66;5035644;28;96673;-29
2022/10/02 07:41:44;;;;;;;5.72;1.25;;;;;;;13.54;87.36;101758.09;5033873;28;101172;-29
2022/10/02 07:44:19;;;;;;;12.55;1.02;;;;;;;13.58;87.49;101759.66;5033999;28;101190;-30
2022/10/02 07:47:17;;;;;;;5.53;1.23;;;;;;;13.63;87.48;101758.50;5035886;28;96475;-29
2022/10/02 07:49:50;;;;;;;4.05;0.90;;;;;;;13.67;87.40;101743.75;5023474;28;96707;-28
2022/10/02 07:52:41;;;;;;;7.63;0.80;;;;;;;13.72;87.41;101744.34;5035523;28;97517;-29
2022/10/02 07:55:22;;;;;;;2.58;0.75;;;;;;;13.72;87.55;101753.38;5033688;28;97750;-32
2022/10/02 07:58:04;;;;;;;4.85;0.68;;;;;;;13.78;87.22;101769.38;5034786;28;96794;-29
2022/10/02 08:00:31;;;;;;;;;;;;;;;13.83;87.54;101782.72;5035716;28;96712;-29
2022/10/02 08:03:19;;;;;;;2.70;0.80;;;;;;;13.81;86.97;101776.47;5035321;28;97580;-29
2022/10/02 08:05:46;;;;;;;4.57;0.90;;;;;;;13.83;87.47;101779.13;5033494;28;101016;-29
2022/10/02 08:08:28;;;;;;;7.22;0.85;;;;;;;13.88;87.03;101790.59;5033895;28;96682;-29
2022/10/02 08:11:06;;;;;;;15.35;1.55;;;;;;;13.90;87.21;101778.66;5035215;28;96649;-30
2022/10/02 08:13:38;;;;;;;2.45;0.65;;;;;;;13.96;87.09;101793.72;5034686;28;99042;-30
2022/10/02 08:16:06;;;;;;;6.07;0.93;;;;;;;14.00;86.68;101790.72;5035176;28;97886;-29
2022/10/02 08:18:43;;;;;;;0.98;0.57;;;;;;;14.08;87.26;101803.88;5033434;28;96607;-28
2022/10/02 08:21:14;;;;;;;5.10;1.08;;;;;;;14.12;86.72;101804.59;5033776;28;96795;-29
2022/10/02 08:23:58;;;;;;;9.82;1.35;;;;;;;14.16;86.72;101808.88;5032916;28;101498;-29
2022/10/02 08:26:41;;;;;;;11.20;1.30;;;;;;;14.20;86.61;101819.47;5067330;27;100473;-30
2022/10/02 08:29:10;;;;;;;6.90;0.77;;;;;;;14.26;86.28;101812.78;5034744;28;97686;-29
2022/10/02 08:31:36;;;;;;;4.63;1.00;;;;;;;14.31;86.40;101815.22;5033560;28;96859;-29
2022/10/02 08:34:20;;;;;;;4.75;1.00;;;;;;;14.33;86.43;101825.06;5034728;28;97917;-29
2022/10/02 08:36:58;;;;;;;7.32;1.20;;;;;;;14.38;86.09;101828.38;5034341;28;99103;-29
2022/10/02 08:39:51;;;;;;;6.78;0.82;;;;;;;14.42;86.17;101820.91;5032618;28;96742;-30
2022/10/02 08:42:16;;;;;;;3.35;0.80;;;;;;;14.50;86.12;101843.09;5033784;28;96862;-28
2022/10/02 08:45:33;;;;;;;6.18;0.90;;;;;;;14.59;86.20;101842.56;5033045;28;99230;-29
2022/10/02 08:48:37;;;;;;;9.43;1.42;;;;;;;14.70;85.25;101844.59;5024106;28;99560;-29
2022/10/02 08:51:24;;;;;;;4.35;1.13;;;;;;;14.83;85.54;101842.84;5034194;27;96500;-29
2022/10/02 08:54:42;;;;;;;4.97;0.82;;;;;;;14.94;85.25;101846.75;5033157;28;96963;-29
2022/10/02 08:57:42;;;;;;;5.70;0.98;;;;;;;15.01;84.80;101843.50;5021798;28;99563;-28
2022/10/02 09:00:13;;;;;;;10.13;1.20;;;;;;;15.11;84.62;101848.38;5032561;28;100685;-29
2022/10/02 09:02:45;;;;;;;3.47;1.02;;;;;;;15.20;84.13;101851.38;5033240;28;96583;-29
2022/10/02 09:05:38;;;;;;;12.30;1.23;;;;;;;15.23;83.98;101850.31;5034582;28;96666;-30
2022/10/02 09:08:32;;;;;;;4.30;1.00;;;;;;;15.26;84.12;101845.53;5032747;28;99038;-29
2022/10/02 09:11:36;;;;;;;7.15;1.20;;;;;;;15.32;84.13;101848.84;5034398;28;99419;-29
2022/10/02 09:14:10;;;;;;;2.70;0.90;;;;;;;15.38;83.89;101857.50;5033887;28;96469;-29
2022/10/02 09:17:13;;;;;;;8.77;1.15;;;;;;;15.41;83.83;101856.44;5032994;28;96814;-29
2022/10/02 09:19:41;;;;;;;7.88;1.05;;;;;;;15.33;83.37;101846.03;5033321;28;99658;-30
2022/10/02 09:22:13;;;;;;;8.88;0.88;;;;;;;15.27;83.26;101855.47;5034053;28;97928;-29
2022/10/02 09:24:54;;;;;;;7.15;1.15;;;;;;;15.23;83.45;101867.59;5034207;28;96552;-29
2022/10/02 09:27:38;;;;;;;7.40;1.02;;;;;;;15.20;83.48;101865.03;5032813;28;96717;-29
2022/10/02 09:30:14;;;;;;;9.65;1.02;;;;;;;15.21;83.75;101866.81;5033997;28;98049;-29
2022/10/02 09:33:27;;;;;;;6.13;0.80;;;;;;;15.24;83.42;101872.06;5034130;28;97880;-28
2022/10/02 09:36:50;;;;;;;8.85;1.15;;;;;;;15.23;83.19;101869.41;5033969;28;96808;-28
2022/10/02 09:39:24;;;;;;;9.73;0.90;;;;;;;15.24;83.03;101887.56;5033997;28;96866;-29
2022/10/02 09:42:22;;;;;;;11.82;0.85;;;;;;;15.32;82.87;101881.59;5033531;28;99437;-31
2022/10/02 09:45:13;;;;;;;4.13;0.95;;;;;;;15.30;82.66;101881.69;5033730;28;99526;-29
2022/10/02 09:48:05;;;;;;;2.97;0.87;;;;;;;15.35;82.56;101889.59;5032184;28;96638;-29
2022/10/02 09:50:37;;;;;;;;;;;;;;;15.66;81.96;101892.06;5034349;27;96666;-29
2022/10/02 09:53:24;;;;;;;10.43;1.20;;;;;;;16.14;81.73;101880.72;5036528;28;97953;-29
2022/10/02 09:56:24;;;;;;;3.83;0.90;;;;;;;16.51;79.44;101894.56;5037167;28;97884;-29
2022/10/02 09:59:13;;;;;;;5.25;0.82;;;;;;;16.73;78.35;101892.06;5037597;28;96490;-28
2022/10/02 10:02:06;;;;;;;5.72;1.02;;;;;;;16.80;76.84;101892.53;5036014;28;96884;-29
2022/10/02 10:04:57;;;;;;;12.00;1.63;;;;;;;16.72;77.62;101895.78;5037150;28;97954;-29
2022/10/02 10:07:33;;;;;;;8.25;1.13;;;;;;;16.72;77.60;101906.72;5035889;28;100694;-28
2022/10/02 10:10:24;;;;;;;11.38;1.35;;;;;;;16.92;76.35;101899.88;5035906;28;96549;-29
2022/10/02 10:13:16;;;;;;;12.23;1.42;;;;;;;17.03;76.37;101901.84;5035785;28;96694;-29
2022/10/02 10:16:13;;;;;;;7.35;1.15;;;;;;;17.45;74.69;101909.75;5036114;28;98060;-29
2022/10/02 10:18:55;;;;;;;3.20;0.95;;;;;;;17.76;73.58;101920.22;5035261;28;101388;-30
2022/10/02 10:21:36;;;;;;;;;;;;;;;17.81;72.57;101933.59;5036098;28;96554;-28
2022/10/02 10:24:39;;;;;;;3.00;1.13;;;;;;;17.73;72.79;101934.16;5037123;28;96762;-28
2022/10/02 10:27:28;;;;;;;5.97;1.08;;;;;;;17.63;72.77;101933.94;5036804;28;97778;-28
2022/10/02 10:30:19;;;;;;;8.70;1.23;;;;;;;17.54;74.07;101920.94;5034967;28;99088;-29
2022/10/02 10:33:02;;;;;;;7.40;1.33;;;;;;;17.57;73.51;101925.31;5035373;28;96748;-31
2022/10/02 10:36:03;;;;;;;11.60;1.60;;;;;;;17.35;72.91;101936.94;5036960;28;96774;-29
2022/10/02 10:38:34;;;;;;;10.10;1.60;;;;;;;17.08;74.30;101937.97;5035131;28;100632;-29
2022/10/02 10:41:37;;;;;;;7.05;1.45;;;;;;;16.86;74.70;101930.41;5036181;28;98033;-29
2022/10/02 10:44:30;;;;;;;5.22;1.58;;;;;;;16.67;74.70;101929.94;5036417;28;96556;-30
2022/10/02 10:47:18;;;;;;;4.20;1.05;;;;;;;16.61;75.27;101935.81;5035325;28;96679;-29
2022/10/02 10:50:03;;;;;;;12.20;1.42;;;;;;;16.70;74.89;101938.78;5034953;28;100899;-28
2022/10/02 10:52:45;;;;;;;7.50;1.50;;;;;;;16.85;74.88;101938.72;5034892;28;98709;-29
2022/10/02 10:55:49;;;;;;;4.30;0.90;;;;;;;17.08;73.65;101959.00;5035302;28;96581;-29
2022/10/02 10:58:28;;;;;;;4.07;1.05;;;;;;;17.32;73.14;101962.69;5036681;28;96491;-30
2022/10/02 11:01:06;;;;;;;5.10;1.20;;;;;;;17.44;73.72;101962.81;5034395;28;101072;-29
2022/10/02 11:03:59;;;;;;;10.48;1.80;;;;;;;17.51;72.31;101964.09;5034416;27;100963;-30
2022/10/02 11:06:55;;;;;;;8.15;1.15;;;;;;;17.59;72.13;101967.16;5036400;27;96514;-30
2022/10/02 11:09:39;;;;;;;5.18;1.20;;;;;;;17.67;71.02;101956.50;5035181;28;96902;-28
2022/10/02 11:12:20;;;;;;;7.80;1.45;;;;;;;17.67;71.98;101978.44;5034051;28;99207;-28
2022/10/02 11:14:49;;;;;;;11.27;1.73;;;;;;;17.76;71.32;101977.75;5033456;28;101011;-29
2022/10/02 11:17:39;;;;;;;8.13;1.40;;;;;;;17.92;69.86;101980.25;5034687;28;96622;-30
2022/10/02 11:20:13;;;;;;;10.38;1.10;;;;;;;17.87;69.68;101973.38;5034784;28;96792;-29
2022/10/02 11:23:12;;;;;;;4.63;0.98;;;;;;;17.94;70.31;101985.63;5034837;28;99331;-33
2022/10/02 11:26:02;;;;;;;4.45;1.40;;;;;;;18.02;69.70;101983.22;5035251;28;97811;-28
2022/10/02 11:28:43;;;;;;;6.63;1.25;;;;;;;18.14;69.84;101982.28;5033128;28;96655;-30
2022/10/02 11:31:20;;;;;;;9.13;1.25;;;;;;;18.20;68.95;101981.81;5035686;28;96848;-30
2022/10/02 11:34:08;;;;;;;5.00;1.58;;;;;;;18.15;70.25;101986.75;5035493;28;97917;-29
2022/10/02 11:36:48;;;;;;;8.05;0.93;;;;;;;18.08;69.70;101980.00;5033666;28;100612;-29
2022/10/02 11:39:35;;;;;;;12.30;2.30;;;;;;;18.01;70.47;101978.69;5032638;28;96837;-28
2022/10/02 11:42:18;;;;;;;5.72;1.23;;;;;;;18.01;70.00;101989.66;5033429;28;96975;-29
2022/10/02 11:45:14;;;;;;;9.63;1.48;;;;;;;18.15;68.38;102000.47;5033987;28;101137;-29
2022/10/02 11:47:58;;;;;;;9.55;1.05;;;;;;;18.11;69.28;101990.72;5035505;28;97252;-29
2022/10/02 11:50:44;;;;;;;3.70;1.33;;;;;;;18.11;68.38;101996.19;5035861;28;96615;-29
2022/10/02 11:53:25;;;;;;;9.10;1.45;;;;;;;18.21;69.24;101999.13;5034089;28;96791;-29
2022/10/02 11:56:03;;;;;;;8.63;1.33;;;;;;;18.34;67.67;102002.72;5031567;28;100589;-30
2022/10/02 11:58:44;;;;;;;2.10;0.80;;;;;;;18.59;64.96;101998.97;5032856;28;100858;-29
2022/10/02 12:01:15;;;;;;;5.82;1.27;;;;;;;18.93;65.99;102010.09;5034588;28;97023;-29
2022/10/02 12:04:10;;;;;;;5.07;2.15;;;;;;;19.18;64.43;102002.66;5034871;27;96815;-30
2022/10/02 12:06:54;;;;;;;4.25;0.70;;;;;;;19.37;63.61;102002.94;5001903;27;97456;-32
2022/10/02 12:09:57;;;;;;;9.88;1.65;;;;;;;19.64;62.97;102021.81;5033331;28;101422;-29
2022/10/02 12:12:30;;;;;;;7.18;1.35;;;;;;;19.77;63.16;102016.22;5002815;27;96842;-29
2022/10/02 12:15:02;;;;;;;7.43;1.23;;;;;;;19.92;62.67;102022.31;5033148;27;96945;-30
2022/10/02 12:17:59;;;;;;;4.30;0.88;;;;;;;19.92;61.85;102014.06;5033656;28;101197;-29
2022/10/02 12:27:08;;;;;;;9.20;3.53;;;;;;;20.10;61.80;102017.19;5035809;28;96677;-29
2022/10/02 12:29:43;;;;;;;36.13;20.55;;;;;;;20.05;60.49;102024.97;5033216;28;98832;-29
2022/10/02 12:32:27;;;;;;;6.82;3.53;;;;;;;20.18;60.54;102016.53;5035145;28;97297;-29